createdAt,value
2023-03-28T00:00:52.045Z,1.03
2023-03-28T00:03:29.151Z,1.30
2023-03-28T00:05:58.144Z,1.30
2023-03-28T00:08:28.598Z,1.70
2023-03-28T00:11:04.066Z,1.27
2023-03-28T00:13:32.124Z,1.17
2023-03-28T00:16:05.831Z,1.53
2023-03-28T00:18:39.189Z,1.13
2023-03-28T00:21:10.124Z,1.00
2023-03-28T00:23:38.169Z,1.47
2023-03-28T00:26:08.792Z,1.47
2023-03-28T00:28:38.105Z,1.40
2023-03-28T00:31:11.019Z,1.50
2023-03-28T00:33:39.272Z,2.03
2023-03-28T00:36:10.407Z,1.33
2023-03-28T00:38:39.633Z,1.07
2023-03-28T00:41:09.796Z,1.60
2023-03-28T00:43:39.222Z,1.00
2023-03-28T00:46:11.525Z,1.20
2023-03-28T00:48:40.063Z,1.93
2023-03-28T00:51:08.577Z,1.50
2023-03-28T00:53:36.678Z,1.40
2023-03-28T00:56:05.565Z,1.20
2023-03-28T00:58:35.346Z,1.10
2023-03-28T01:01:03.933Z,1.23
2023-03-28T01:03:35.838Z,1.20
2023-03-28T01:06:04.613Z,1.57
2023-03-28T01:08:34.537Z,1.77
2023-03-28T01:11:02.568Z,1.70
2023-03-28T01:13:32.464Z,1.37
2023-03-28T01:16:00.849Z,1.53
2023-03-28T01:18:30.342Z,1.33
2023-03-28T01:21:34.238Z,1.10
2023-03-28T01:24:25.901Z,1.10
2023-03-28T01:26:54.691Z,1.43
2023-03-28T01:30:03.800Z,1.33
2023-03-28T01:33:12.997Z,1.77
2023-03-28T01:36:34.163Z,1.30
2023-03-28T01:39:09.520Z,1.20
2023-03-28T01:41:42.115Z,1.30
2023-03-28T01:44:12.038Z,1.43
2023-03-28T01:46:41.153Z,1.47
2023-03-28T01:49:10.434Z,1.40
2023-03-28T01:51:46.789Z,1.80
2023-03-28T01:54:19.340Z,1.40
2023-03-28T01:56:50.466Z,1.17
2023-03-28T01:59:20.487Z,1.30
2023-03-28T02:01:51.369Z,1.57
2023-03-28T02:04:21.375Z,1.60
2023-03-28T02:06:50.117Z,1.40
2023-03-28T02:09:20.498Z,1.40
2023-03-28T02:11:48.628Z,1.30
2023-03-28T02:14:18.349Z,1.07
2023-03-28T02:16:46.439Z,1.10
2023-03-28T02:19:14.544Z,1.20
2023-03-28T02:21:45.105Z,1.40
2023-03-28T02:24:13.329Z,1.40
2023-03-28T02:26:42.768Z,1.33
2023-03-28T02:29:10.819Z,1.37
2023-03-28T02:31:38.939Z,1.27
2023-03-28T02:34:07.037Z,1.40
2023-03-28T02:36:45.979Z,1.57
2023-03-28T02:39:30.394Z,1.47
2023-03-28T02:42:36.611Z,1.60
2023-03-28T02:45:36.156Z,1.40
2023-03-28T02:48:11.446Z,1.70
2023-03-28T02:50:43.165Z,1.53
2023-03-28T02:53:13.520Z,1.27
2023-03-28T02:55:44.645Z,1.60
2023-03-28T02:58:16.160Z,1.20
2023-03-28T03:00:44.217Z,1.07
2023-03-28T03:03:12.338Z,1.70
2023-03-28T03:05:45.796Z,1.53
2023-03-28T03:08:13.837Z,1.87
2023-03-28T03:10:42.129Z,1.20
2023-03-28T03:13:10.182Z,1.50
2023-03-28T03:15:41.572Z,1.80
2023-03-28T03:18:09.770Z,1.63
2023-03-28T03:20:37.900Z,1.30
2023-03-28T03:23:06.311Z,1.20
2023-03-28T03:25:34.602Z,1.30
2023-03-28T03:28:03.339Z,1.70
2023-03-28T03:30:31.402Z,1.30
2023-03-28T03:33:01.586Z,2.00
2023-03-28T03:35:33.776Z,1.37
2023-03-28T03:38:01.858Z,1.87
2023-03-28T03:40:29.925Z,1.50
2023-03-28T03:42:57.998Z,1.50
2023-03-28T03:45:26.355Z,1.53
2023-03-28T03:47:54.434Z,1.50
2023-03-28T03:50:23.896Z,1.23
2023-03-28T03:52:51.940Z,1.83
2023-03-28T03:55:20.822Z,1.50
2023-03-28T03:57:48.958Z,1.80
2023-03-28T04:00:18.934Z,1.50
2023-03-28T04:02:51.831Z,1.83
2023-03-28T04:05:19.928Z,1.50
2023-03-28T04:07:49.350Z,2.00
2023-03-28T04:10:17.495Z,2.00
2023-03-28T04:12:45.566Z,2.73
2023-03-28T04:15:13.610Z,1.43
2023-03-28T04:17:41.813Z,1.80
2023-03-28T04:20:13.415Z,1.70
2023-03-28T04:22:45.357Z,1.70
2023-03-28T04:25:17.755Z,1.80
2023-03-28T04:27:48.398Z,2.10
2023-03-28T04:30:17.988Z,1.80
2023-03-28T04:32:49.454Z,1.80
2023-03-28T04:35:17.833Z,2.23
2023-03-28T04:37:47.520Z,2.27
2023-03-28T04:40:17.873Z,2.00
2023-03-28T04:43:21.339Z,2.00
2023-03-28T04:45:57.973Z,2.10
2023-03-28T04:52:07.153Z,1.77
2023-03-28T04:58:24.621Z,1.90
2023-03-28T05:01:22.640Z,2.03
2023-03-28T05:03:51.778Z,2.00
2023-03-28T05:06:27.765Z,1.77
2023-03-28T05:09:22.598Z,2.00
2023-03-28T05:11:57.833Z,2.23
2023-03-28T05:15:23.261Z,2.10
2023-03-28T05:21:52.942Z,2.20
2023-03-28T05:24:45.367Z,2.33
2023-03-28T05:27:15.794Z,2.23
2023-03-28T05:29:52.641Z,2.20
2023-03-28T05:32:28.442Z,2.33
2023-03-28T05:34:56.666Z,2.40
2023-03-28T05:38:03.240Z,2.30
2023-03-28T05:40:41.237Z,2.07
2023-03-28T05:43:21.806Z,2.20
2023-03-28T05:45:51.955Z,2.30
2023-03-28T05:48:49.607Z,2.27
2023-03-28T05:51:39.357Z,2.10
2023-03-28T05:54:07.420Z,2.20
2023-03-28T05:56:37.992Z,2.23
2023-03-28T05:59:09.925Z,1.90
2023-03-28T06:02:03.504Z,2.07
2023-03-28T06:05:09.810Z,2.40
2023-03-28T06:07:52.401Z,2.10
2023-03-28T06:14:28.808Z,2.03
2023-03-28T06:17:50.121Z,1.87
2023-03-28T06:20:21.839Z,2.20
2023-03-28T06:23:04.199Z,2.07
2023-03-28T06:25:32.261Z,2.30
2023-03-28T06:28:51.535Z,2.40
2023-03-28T06:31:29.289Z,2.80
2023-03-28T06:34:17.263Z,2.40
2023-03-28T06:37:15.514Z,2.50
2023-03-28T06:40:39.383Z,2.23
2023-03-28T06:43:09.859Z,2.13
2023-03-28T06:46:16.296Z,2.33
2023-03-28T06:49:27.444Z,2.57
2023-03-28T06:52:06.203Z,2.53
2023-03-28T06:55:03.425Z,2.13
2023-03-28T06:57:33.928Z,1.87
2023-03-28T07:00:11.442Z,2.60
2023-03-28T07:02:46.014Z,2.40
2023-03-28T07:05:21.910Z,2.27
2023-03-28T07:08:05.960Z,2.13
2023-03-28T07:10:34.031Z,2.43
2023-03-28T07:13:22.300Z,2.63
2023-03-28T07:16:15.840Z,2.50
2023-03-28T07:18:44.352Z,1.90
2023-03-28T07:21:39.469Z,2.50
2023-03-28T07:24:17.520Z,2.20
2023-03-28T07:27:12.374Z,2.77
2023-03-28T07:33:31.637Z,2.20
2023-03-28T07:36:08.959Z,2.80
2023-03-28T07:38:39.912Z,2.83
2023-03-28T07:45:12.252Z,2.27
2023-03-28T07:47:46.016Z,2.43
2023-03-28T07:50:14.666Z,2.60
2023-03-28T07:52:45.790Z,2.43
2023-03-28T07:55:21.960Z,2.30
2023-03-28T07:57:58.534Z,2.70
2023-03-28T08:00:53.106Z,3.00
2023-03-28T08:03:34.045Z,2.37
2023-03-28T08:06:13.357Z,3.30
2023-03-28T08:09:04.087Z,2.10
2023-03-28T08:11:40.160Z,2.30
2023-03-28T08:14:33.486Z,2.40
2023-03-28T08:17:17.397Z,2.80
2023-03-28T08:19:51.960Z,2.67
2023-03-28T08:22:45.676Z,2.30
2023-03-28T08:25:15.978Z,2.17
2023-03-28T08:27:57.992Z,2.40
2023-03-28T08:30:34.027Z,2.73
2023-03-28T08:33:39.335Z,2.60
2023-03-28T08:36:14.497Z,2.40
2023-03-28T08:38:54.498Z,2.00
2023-03-28T08:41:44.766Z,2.40
2023-03-28T08:44:21.119Z,2.57
2023-03-28T08:47:00.200Z,2.23
2023-03-28T08:49:43.257Z,1.93
2023-03-28T08:53:08.270Z,2.30
2023-03-28T08:55:41.818Z,1.80
2023-03-28T08:58:10.717Z,2.30
2023-03-28T09:01:32.274Z,2.10
2023-03-28T09:04:13.947Z,2.40
2023-03-28T09:06:42.442Z,2.80
2023-03-28T09:09:49.053Z,2.07
2023-03-28T09:12:27.700Z,2.40
2023-03-28T09:15:39.365Z,1.93
2023-03-28T09:18:48.488Z,1.97
2023-03-28T09:21:19.878Z,2.20
2023-03-28T09:28:21.417Z,1.87
2023-03-28T09:34:42.209Z,2.20
2023-03-28T09:37:22.974Z,2.00
2023-03-28T09:39:52.364Z,2.60
2023-03-28T09:42:26.122Z,2.17
2023-03-28T09:45:10.288Z,1.57
2023-03-28T09:47:38.471Z,1.80
2023-03-28T09:50:12.713Z,2.13
2023-03-28T09:52:52.168Z,2.00
2023-03-28T09:55:21.307Z,1.47
2023-03-28T09:58:15.906Z,2.20
2023-03-28T10:00:58.162Z,1.37
2023-03-28T10:03:32.105Z,1.40
2023-03-28T10:06:39.379Z,1.40
2023-03-28T10:09:29.403Z,1.53
2023-03-28T10:11:59.791Z,1.73
2023-03-28T10:14:48.245Z,1.00
2023-03-28T10:17:18.351Z,1.30
2023-03-28T10:19:52.340Z,1.60
2023-03-28T10:22:45.799Z,1.50
2023-03-28T10:25:36.516Z,1.80
2023-03-28T10:28:05.375Z,1.10
2023-03-28T10:30:46.238Z,1.70
2023-03-28T10:33:24.452Z,1.30
2023-03-28T10:36:37.606Z,1.50
2023-03-28T10:39:23.216Z,1.47
2023-03-28T10:42:00.526Z,1.47
2023-03-28T10:44:41.005Z,1.23
2023-03-28T10:47:56.379Z,1.43
2023-03-28T10:50:38.508Z,1.50
2023-03-28T10:53:33.530Z,1.53
2023-03-28T10:56:14.168Z,1.30
2023-03-28T10:59:14.570Z,1.07
2023-03-28T11:02:24.572Z,1.27
2023-03-28T11:04:56.440Z,1.60
2023-03-28T11:07:32.643Z,1.20
2023-03-28T11:10:22.852Z,1.50
2023-03-28T11:12:59.229Z,1.30
2023-03-28T11:15:31.686Z,1.10
2023-03-28T11:18:22.970Z,1.23
2023-03-28T11:20:54.389Z,1.30
2023-03-28T11:23:46.095Z,1.10
2023-03-28T11:26:30.309Z,1.10
2023-03-28T11:29:42.990Z,1.10
2023-03-28T11:32:19.459Z,1.37
2023-03-28T11:34:56.098Z,1.63
2023-03-28T11:37:29.602Z,1.70
2023-03-28T11:39:59.020Z,1.23
2023-03-28T11:42:30.273Z,0.93
2023-03-28T11:45:02.527Z,1.40
2023-03-28T11:47:34.225Z,0.90
2023-03-28T11:50:17.674Z,0.90
2023-03-28T11:53:23.998Z,1.60
2023-03-28T11:55:52.869Z,1.00
2023-03-28T11:58:40.961Z,0.90
2023-03-28T12:01:10.878Z,1.70
2023-03-28T12:03:47.741Z,1.63
2023-03-28T12:07:02.869Z,1.60
2023-03-28T12:09:49.873Z,1.03
2023-03-28T12:12:40.082Z,1.30
2023-03-28T12:15:10.773Z,1.17
2023-03-28T12:17:41.911Z,1.00
2023-03-28T12:20:15.806Z,1.10
2023-03-28T12:22:44.707Z,1.50
2023-03-28T12:25:23.013Z,1.03
2023-03-28T12:27:56.962Z,1.20
2023-03-28T12:30:26.584Z,1.33
2023-03-28T12:33:16.016Z,1.10
2023-03-28T12:35:56.468Z,0.80
2023-03-28T12:38:31.720Z,0.83
2023-03-28T12:41:22.920Z,1.30
2023-03-28T12:44:12.151Z,1.33
2023-03-28T12:46:53.219Z,1.00
2023-03-28T12:49:26.860Z,0.97
2023-03-28T12:52:06.702Z,1.43
2023-03-28T12:54:35.053Z,1.23
2023-03-28T12:57:04.465Z,1.13
2023-03-28T12:59:50.296Z,0.90
2023-03-28T13:02:30.360Z,1.20
2023-03-28T13:05:01.164Z,0.90
2023-03-28T13:07:45.893Z,1.03
2023-03-28T13:10:16.477Z,0.97
2023-03-28T13:13:00.362Z,1.03
2023-03-28T13:15:34.449Z,1.13
2023-03-28T13:18:34.060Z,1.13
2023-03-28T13:21:04.429Z,1.10
2023-03-28T13:23:36.256Z,1.40
2023-03-28T13:26:04.911Z,1.03
2023-03-28T13:28:37.016Z,1.20
2023-03-28T13:31:13.076Z,0.77
2023-03-28T13:33:48.021Z,0.83
2023-03-28T13:36:21.430Z,1.10
2023-03-28T13:38:51.867Z,1.10
2023-03-28T13:41:49.592Z,0.90
2023-03-28T13:44:18.384Z,1.07
2023-03-28T13:46:47.034Z,1.47
2023-03-28T13:49:46.340Z,1.13
2023-03-28T13:52:16.933Z,1.10
2023-03-28T13:55:19.021Z,1.17
2023-03-28T13:58:27.661Z,1.07
2023-03-28T14:01:08.177Z,1.10
2023-03-28T14:03:44.132Z,1.10
2023-03-28T14:06:17.300Z,0.90
2023-03-28T14:08:47.462Z,1.13
2023-03-28T14:11:19.077Z,1.13
2023-03-28T14:13:47.123Z,1.13
2023-03-28T14:16:17.164Z,0.83
2023-03-28T14:19:09.798Z,1.10
2023-03-28T14:21:38.036Z,1.10
2023-03-28T14:24:12.129Z,0.90
2023-03-28T14:26:41.848Z,1.00
2023-03-28T14:29:18.175Z,1.13
2023-03-28T14:31:52.328Z,1.17
2023-03-28T14:34:24.677Z,1.00
2023-03-28T14:37:00.940Z,1.20
2023-03-28T14:39:29.950Z,0.63
2023-03-28T14:42:14.598Z,0.90
2023-03-28T14:45:21.615Z,1.00
2023-03-28T14:47:58.646Z,0.90
2023-03-28T14:50:27.828Z,1.10
2023-03-28T14:53:00.704Z,1.07
2023-03-28T14:55:28.836Z,0.90
2023-03-28T14:58:05.804Z,1.07
2023-03-28T15:01:04.776Z,1.00
2023-03-28T15:03:33.982Z,0.90
2023-03-28T15:06:02.065Z,0.97
2023-03-28T15:08:34.552Z,0.90
2023-03-28T15:11:05.456Z,0.83
2023-03-28T15:13:37.154Z,0.80
2023-03-28T15:16:10.363Z,0.80
2023-03-28T15:19:10.546Z,0.80
2023-03-28T15:21:56.073Z,0.80
2023-03-28T15:24:40.330Z,0.90
2023-03-28T15:27:09.617Z,0.90
2023-03-28T15:29:39.072Z,0.80
2023-03-28T15:32:17.761Z,1.00
2023-03-28T15:34:47.179Z,0.67
2023-03-28T15:37:28.205Z,0.70
2023-03-28T15:39:59.076Z,1.20
2023-03-28T15:42:57.850Z,1.00
2023-03-28T15:45:59.480Z,0.67
2023-03-28T15:48:46.322Z,0.70
2023-03-28T15:51:15.800Z,1.03
2023-03-28T15:53:43.927Z,0.87
2023-03-28T15:56:17.124Z,1.00
2023-03-28T15:58:45.643Z,1.07
2023-03-28T16:01:23.476Z,0.97
2023-03-28T16:03:52.712Z,0.83
2023-03-28T16:06:32.403Z,0.80
2023-03-28T16:09:15.689Z,0.90
2023-03-28T16:12:21.689Z,0.80
2023-03-28T16:15:10.056Z,0.90
2023-03-28T16:17:41.938Z,1.23
2023-03-28T16:20:17.397Z,0.70
2023-03-28T16:22:46.346Z,0.80
2023-03-28T16:25:14.479Z,0.93
2023-03-28T16:27:58.330Z,0.80
2023-03-28T16:30:52.999Z,0.93
2023-03-28T16:33:24.732Z,0.90
2023-03-28T16:35:53.496Z,0.70
2023-03-28T16:38:22.155Z,0.87
2023-03-28T16:40:50.227Z,1.03
2023-03-28T16:43:22.343Z,0.70
2023-03-28T16:45:50.627Z,0.73
2023-03-28T16:48:41.432Z,0.70
2023-03-28T16:51:09.494Z,1.00
2023-03-28T16:53:40.623Z,0.90
2023-03-28T16:56:17.420Z,0.90
2023-03-28T16:58:58.282Z,0.70
2023-03-28T17:01:57.968Z,0.83
2023-03-28T17:04:29.799Z,1.00
2023-03-28T17:06:58.373Z,0.93
2023-03-28T17:09:58.112Z,0.67
2023-03-28T17:12:34.769Z,0.70
2023-03-28T17:15:11.092Z,0.80
2023-03-28T17:17:40.638Z,0.83
2023-03-28T17:20:35.557Z,0.90
2023-03-28T17:23:03.923Z,1.00
2023-03-28T17:25:36.818Z,0.90
2023-03-28T17:28:10.029Z,1.10
2023-03-28T17:30:38.685Z,0.80
2023-03-28T17:33:07.105Z,0.90
2023-03-28T17:35:36.596Z,0.83
2023-03-28T17:38:04.668Z,0.90
2023-03-28T17:40:32.727Z,0.90
2023-03-28T17:43:00.746Z,1.10
2023-03-28T17:46:24.120Z,0.90
2023-03-28T17:48:53.072Z,0.80
2023-03-28T17:51:23.937Z,0.60
2023-03-28T17:53:52.646Z,0.93
2023-03-28T17:56:23.385Z,1.03
2023-03-28T17:59:33.896Z,1.30
2023-03-28T18:02:02.985Z,0.80
2023-03-28T18:04:34.566Z,0.90
2023-03-28T18:07:16.556Z,0.90
2023-03-28T18:09:59.330Z,0.80
2023-03-28T18:12:40.516Z,0.87
2023-03-28T18:15:10.986Z,1.00
2023-03-28T18:17:39.069Z,1.10
2023-03-28T18:20:40.010Z,0.90
2023-03-28T18:23:12.022Z,0.97
2023-03-28T18:25:47.551Z,1.37
2023-03-28T18:28:16.402Z,1.10
2023-03-28T18:31:28.220Z,0.93
2023-03-28T18:34:05.217Z,1.20
2023-03-28T18:36:33.274Z,1.10
2023-03-28T18:39:41.688Z,0.90
2023-03-28T18:42:11.131Z,0.90
2023-03-28T18:44:40.933Z,1.03
2023-03-28T18:47:28.128Z,0.80
2023-03-28T18:50:11.578Z,0.70
2023-03-28T18:52:53.032Z,1.17
2023-03-28T18:55:34.690Z,0.93
2023-03-28T18:58:18.658Z,1.10
2023-03-28T19:00:46.934Z,0.90
2023-03-28T19:03:58.064Z,1.13
2023-03-28T19:06:28.464Z,1.10
2023-03-28T19:09:10.537Z,0.90
2023-03-28T19:11:40.576Z,1.00
2023-03-28T19:14:56.738Z,0.90
2023-03-28T19:17:36.471Z,1.40
2023-03-28T19:20:17.368Z,1.00
2023-03-28T19:23:04.170Z,1.20
2023-03-28T19:25:32.270Z,1.20
2023-03-28T19:28:00.392Z,0.90
2023-03-28T19:30:30.429Z,1.20
2023-03-28T19:33:23.592Z,1.37
2023-03-28T19:35:52.535Z,1.27
2023-03-28T19:38:21.040Z,1.17
2023-03-28T19:40:49.103Z,1.03
2023-03-28T19:43:34.525Z,1.60
2023-03-28T19:46:27.464Z,1.37
2023-03-28T19:49:00.739Z,0.97
2023-03-28T19:51:28.929Z,1.40
2023-03-28T19:53:56.997Z,1.20
2023-03-28T19:56:25.051Z,1.20
2023-03-28T19:58:53.133Z,1.33
2023-03-28T20:01:21.327Z,1.40
2023-03-28T20:03:59.924Z,1.20
2023-03-28T20:06:27.972Z,1.50
2023-03-28T20:08:58.601Z,1.20
2023-03-28T20:11:26.785Z,1.40
2023-03-28T20:13:54.842Z,1.10
2023-03-28T20:16:22.946Z,1.77
2023-03-28T20:18:54.763Z,1.47
2023-03-28T20:21:49.167Z,1.60
2023-03-28T20:24:18.139Z,1.40
2023-03-28T20:26:46.278Z,1.40
2023-03-28T20:29:16.538Z,1.20
2023-03-28T20:31:46.755Z,1.37
2023-03-28T20:34:22.599Z,1.30
2023-03-28T20:36:56.483Z,1.30
2023-03-28T20:40:15.958Z,1.00
2023-03-28T20:42:52.612Z,1.17
2023-03-28T20:45:46.005Z,1.40
2023-03-28T20:48:16.849Z,1.37
2023-03-28T20:50:54.046Z,1.80
2023-03-28T20:53:23.484Z,1.77
2023-03-28T20:56:05.625Z,1.47
2023-03-28T20:58:34.093Z,1.57
2023-03-28T21:01:03.847Z,1.37
2023-03-28T21:03:46.728Z,1.20
2023-03-28T21:06:17.299Z,1.40
2023-03-28T21:08:48.871Z,1.30
2023-03-28T21:12:14.991Z,1.50
2023-03-28T21:15:04.222Z,1.10
2023-03-28T21:17:34.602Z,1.53
2023-03-28T21:20:07.274Z,1.40
2023-03-28T21:22:46.749Z,1.27
2023-03-28T21:25:16.683Z,1.77
2023-03-28T21:27:44.790Z,1.40
2023-03-28T21:30:13.939Z,1.43
2023-03-28T21:32:47.804Z,1.20
2023-03-28T21:35:35.294Z,1.27
2023-03-28T21:38:22.171Z,1.43
2023-03-28T21:41:00.363Z,1.50
2023-03-28T21:43:40.918Z,1.57
2023-03-28T21:46:11.330Z,1.30
2023-03-28T21:48:39.610Z,1.30
2023-03-28T21:51:07.892Z,1.50
2023-03-28T21:53:52.628Z,1.13
2023-03-28T21:56:23.051Z,1.10
2023-03-28T21:58:52.681Z,1.47
2023-03-28T22:01:20.851Z,1.70
2023-03-28T22:03:58.650Z,1.30
2023-03-28T22:06:26.736Z,1.20
2023-03-28T22:08:55.043Z,1.10
2023-03-28T22:11:27.960Z,1.20
2023-03-28T22:14:05.399Z,1.10
2023-03-28T22:16:36.986Z,1.40
2023-03-28T22:19:18.858Z,1.20
2023-03-28T22:21:48.669Z,1.40
2023-03-28T22:24:29.686Z,1.47
2023-03-28T22:27:12.338Z,1.03
2023-03-28T22:29:40.791Z,1.07
2023-03-28T22:32:08.866Z,1.10
2023-03-28T22:34:41.394Z,1.03
2023-03-28T22:37:16.822Z,1.10
2023-03-28T22:39:44.852Z,1.10
2023-03-28T22:42:14.241Z,1.23
2023-03-28T22:44:47.573Z,1.20
2023-03-28T22:47:17.920Z,1.40
2023-03-28T22:49:46.063Z,1.37
2023-03-28T22:52:16.673Z,1.30
2023-03-28T22:54:58.685Z,1.20
2023-03-28T22:57:28.073Z,1.30
2023-03-28T22:59:56.471Z,1.10
2023-03-28T23:02:34.631Z,1.33
2023-03-28T23:05:04.394Z,1.30
2023-03-28T23:07:46.701Z,1.10
2023-03-28T23:10:22.862Z,1.37
2023-03-28T23:12:52.291Z,1.10
2023-03-28T23:15:22.751Z,1.10
2023-03-28T23:17:50.925Z,1.10
2023-03-28T23:20:29.557Z,1.10
2023-03-28T23:22:57.613Z,1.17
2023-03-28T23:25:28.769Z,1.43
2023-03-28T23:28:12.366Z,1.33
2023-03-28T23:30:52.691Z,1.17
2023-03-28T23:33:58.065Z,1.13
2023-03-28T23:36:30.150Z,1.10
2023-03-28T23:39:05.254Z,1.40
2023-03-28T23:41:34.757Z,0.90
2023-03-28T23:44:30.783Z,1.23
2023-03-28T23:47:00.245Z,1.40
2023-03-28T23:49:46.837Z,1.20
2023-03-28T23:52:34.253Z,1.17
2023-03-28T23:55:22.228Z,1.00
2023-03-28T23:58:40.159Z,1.10
